sensor_id;sensor_type;location;lat;lon;timestamp;temperature;humidity
4518;DHT22;2271;49.464;11.070;2024-02-16T00:00:06;10.30;99.90
4518;DHT22;2271;49.464;11.070;2024-02-16T00:02:32;10.30;99.90
4518;DHT22;2271;49.464;11.070;2024-02-16T00:04:58;10.30;99.90
4518;DHT22;2271;49.464;11.070;2024-02-16T00:07:24;10.30;99.90
4518;DHT22;2271;49.464;11.070;2024-02-16T00:09:50;10.30;99.90
4518;DHT22;2271;49.464;11.070;2024-02-16T00:12:16;10.30;99.90
4518;DHT22;2271;49.464;11.070;2024-02-16T00:14:42;10.30;99.90
4518;DHT22;2271;49.464;11.070;2024-02-16T00:17:08;10.30;99.90
4518;DHT22;2271;49.464;11.070;2024-02-16T00:19:35;10.30;99.90
4518;DHT22;2271;49.464;11.070;2024-02-16T00:22:01;10.20;99.90
4518;DHT22;2271;49.464;11.070;2024-02-16T00:24:27;10.20;99.90
4518;DHT22;2271;49.464;11.070;2024-02-16T00:26:53;10.20;99.90
4518;DHT22;2271;49.464;11.070;2024-02-16T00:29:18;10.20;99.90
4518;DHT22;2271;49.464;11.070;2024-02-16T00:31:44;10.20;99.90
4518;DHT22;2271;49.464;11.070;2024-02-16T00:34:10;10.20;99.90
4518;DHT22;2271;49.464;11.070;2024-02-16T00:36:36;10.20;99.90
4518;DHT22;2271;49.464;11.070;2024-02-16T00:39:02;10.10;99.90
4518;DHT22;2271;49.464;11.070;2024-02-16T00:41:29;10.20;99.90
4518;DHT22;2271;49.464;11.070;2024-02-16T00:43:55;10.10;99.90
4518;DHT22;2271;49.464;11.070;2024-02-16T00:46:22;10.20;99.90
4518;DHT22;2271;49.464;11.070;2024-02-16T00:48:49;10.10;99.90
4518;DHT22;2271;49.464;11.070;2024-02-16T00:51:15;10.20;99.90
4518;DHT22;2271;49.464;11.070;2024-02-16T00:53:41;10.20;99.90
4518;DHT22;2271;49.464;11.070;2024-02-16T00:56:06;10.30;99.90
4518;DHT22;2271;49.464;11.070;2024-02-16T00:58:32;10.30;99.90
4518;DHT22;2271;49.464;11.070;2024-02-16T01:00:58;10.30;99.90
4518;DHT22;2271;49.464;11.070;2024-02-16T01:03:24;10.40;99.90
4518;DHT22;2271;49.464;11.070;2024-02-16T01:05:52;10.40;99.90
4518;DHT22;2271;49.464;11.070;2024-02-16T01:08:17;10.40;99.90
4518;DHT22;2271;49.464;11.070;2024-02-16T01:10:43;10.50;99.90
4518;DHT22;2271;49.464;11.070;2024-02-16T01:13:09;10.50;99.90
4518;DHT22;2271;49.464;11.070;2024-02-16T01:15:35;10.50;99.90
4518;DHT22;2271;49.464;11.070;2024-02-16T01:18:03;10.50;99.90
4518;DHT22;2271;49.464;11.070;2024-02-16T01:20:28;10.50;99.90
4518;DHT22;2271;49.464;11.070;2024-02-16T01:22:56;10.50;99.90
4518;DHT22;2271;49.464;11.070;2024-02-16T01:25:22;10.50;99.90
4518;DHT22;2271;49.464;11.070;2024-02-16T01:27:48;10.50;99.90
4518;DHT22;2271;49.464;11.070;2024-02-16T01:30:13;10.50;99.90
4518;DHT22;2271;49.464;11.070;2024-02-16T01:32:41;10.40;99.90
4518;DHT22;2271;49.464;11.070;2024-02-16T01:35:07;10.40;99.90
4518;DHT22;2271;49.464;11.070;2024-02-16T01:37:32;10.40;99.90
4518;DHT22;2271;49.464;11.070;2024-02-16T01:39:58;10.40;99.90
4518;DHT22;2271;49.464;11.070;2024-02-16T01:42:24;10.40;99.90
4518;DHT22;2271;49.464;11.070;2024-02-16T01:44:50;10.30;99.90
4518;DHT22;2271;49.464;11.070;2024-02-16T01:47:18;10.30;99.90
4518;DHT22;2271;49.464;11.070;2024-02-16T01:49:45;10.30;99.90
4518;DHT22;2271;49.464;11.070;2024-02-16T01:52:11;10.30;99.90
4518;DHT22;2271;49.464;11.070;2024-02-16T01:54:38;10.30;99.90
4518;DHT22;2271;49.464;11.070;2024-02-16T01:57:05;10.30;99.90
4518;DHT22;2271;49.464;11.070;2024-02-16T01:59:31;10.30;99.90
4518;DHT22;2271;49.464;11.070;2024-02-16T02:01:59;10.30;99.90
4518;DHT22;2271;49.464;11.070;2024-02-16T02:04:25;10.30;99.90
4518;DHT22;2271;49.464;11.070;2024-02-16T02:06:51;10.30;99.90
4518;DHT22;2271;49.464;11.070;2024-02-16T02:09:17;10.40;99.90
4518;DHT22;2271;49.464;11.070;2024-02-16T02:11:42;10.40;99.90
4518;DHT22;2271;49.464;11.070;2024-02-16T02:14:09;10.40;99.90
4518;DHT22;2271;49.464;11.070;2024-02-16T02:16:34;10.40;99.90
4518;DHT22;2271;49.464;11.070;2024-02-16T02:19:00;10.40;99.90
4518;DHT22;2271;49.464;11.070;2024-02-16T02:21:25;10.40;99.90
4518;DHT22;2271;49.464;11.070;2024-02-16T02:23:51;10.40;99.90
4518;DHT22;2271;49.464;11.070;2024-02-16T02:26:16;10.40;99.90
4518;DHT22;2271;49.464;11.070;2024-02-16T02:28:42;10.40;99.90
4518;DHT22;2271;49.464;11.070;2024-02-16T02:31:08;10.40;99.90
4518;DHT22;2271;49.464;11.070;2024-02-16T02:33:34;10.40;99.90
4518;DHT22;2271;49.464;11.070;2024-02-16T02:36:00;10.40;99.90
4518;DHT22;2271;49.464;11.070;2024-02-16T02:38:26;10.40;99.90
4518;DHT22;2271;49.464;11.070;2024-02-16T02:40:52;10.50;99.90
4518;DHT22;2271;49.464;11.070;2024-02-16T02:43:18;10.50;99.90
4518;DHT22;2271;49.464;11.070;2024-02-16T02:45:44;10.50;99.90
4518;DHT22;2271;49.464;11.070;2024-02-16T02:48:10;10.50;99.90
4518;DHT22;2271;49.464;11.070;2024-02-16T02:50:36;10.40;99.90
4518;DHT22;2271;49.464;11.070;2024-02-16T02:53:01;10.40;99.90
4518;DHT22;2271;49.464;11.070;2024-02-16T02:55:27;10.40;99.90
4518;DHT22;2271;49.464;11.070;2024-02-16T02:57:52;10.50;99.90
4518;DHT22;2271;49.464;11.070;2024-02-16T03:00:18;10.50;99.90
4518;DHT22;2271;49.464;11.070;2024-02-16T03:02:44;10.50;99.90
4518;DHT22;2271;49.464;11.070;2024-02-16T03:05:10;10.40;99.90
4518;DHT22;2271;49.464;11.070;2024-02-16T03:07:36;10.50;99.90
4518;DHT22;2271;49.464;11.070;2024-02-16T03:10:03;10.50;99.90
4518;DHT22;2271;49.464;11.070;2024-02-16T03:12:29;10.40;99.90
4518;DHT22;2271;49.464;11.070;2024-02-16T03:14:55;10.40;99.90
4518;DHT22;2271;49.464;11.070;2024-02-16T03:17:20;10.40;99.90
4518;DHT22;2271;49.464;11.070;2024-02-16T03:19:46;10.30;99.90
4518;DHT22;2271;49.464;11.070;2024-02-16T03:22:12;10.30;99.90
4518;DHT22;2271;49.464;11.070;2024-02-16T03:24:38;10.20;99.90
4518;DHT22;2271;49.464;11.070;2024-02-16T03:27:04;10.20;99.90
4518;DHT22;2271;49.464;11.070;2024-02-16T03:29:29;10.20;99.90
4518;DHT22;2271;49.464;11.070;2024-02-16T03:31:55;10.20;99.90
4518;DHT22;2271;49.464;11.070;2024-02-16T03:34:21;10.30;99.90
4518;DHT22;2271;49.464;11.070;2024-02-16T03:36:47;10.30;99.90
4518;DHT22;2271;49.464;11.070;2024-02-16T03:39:13;10.30;99.90
4518;DHT22;2271;49.464;11.070;2024-02-16T03:41:39;10.30;99.90
4518;DHT22;2271;49.464;11.070;2024-02-16T03:44:05;10.30;99.90
4518;DHT22;2271;49.464;11.070;2024-02-16T03:46:30;10.30;99.90
4518;DHT22;2271;49.464;11.070;2024-02-16T03:48:56;10.30;99.90
4518;DHT22;2271;49.464;11.070;2024-02-16T03:51:22;10.20;99.90
4518;DHT22;2271;49.464;11.070;2024-02-16T03:53:47;10.30;99.90
4518;DHT22;2271;49.464;11.070;2024-02-16T03:56:23;10.20;99.90
4518;DHT22;2271;49.464;11.070;2024-02-16T03:58:48;10.20;99.90
4518;DHT22;2271;49.464;11.070;2024-02-16T04:01:14;10.10;99.90
4518;DHT22;2271;49.464;11.070;2024-02-16T04:03:39;10.00;99.90
4518;DHT22;2271;49.464;11.070;2024-02-16T04:06:05;10.00;99.90
4518;DHT22;2271;49.464;11.070;2024-02-16T04:08:31;10.00;99.90
4518;DHT22;2271;49.464;11.070;2024-02-16T04:10:56;9.90;99.90
4518;DHT22;2271;49.464;11.070;2024-02-16T04:13:22;10.00;99.90
4518;DHT22;2271;49.464;11.070;2024-02-16T04:15:47;9.90;99.90
4518;DHT22;2271;49.464;11.070;2024-02-16T04:18:13;9.80;99.90
4518;DHT22;2271;49.464;11.070;2024-02-16T04:20:39;9.90;99.90
4518;DHT22;2271;49.464;11.070;2024-02-16T04:23:06;9.90;99.90
4518;DHT22;2271;49.464;11.070;2024-02-16T04:25:32;9.90;99.90
4518;DHT22;2271;49.464;11.070;2024-02-16T04:27:57;9.90;99.90
4518;DHT22;2271;49.464;11.070;2024-02-16T04:30:23;9.90;99.90
4518;DHT22;2271;49.464;11.070;2024-02-16T04:32:48;9.90;99.90
4518;DHT22;2271;49.464;11.070;2024-02-16T04:35:14;10.00;99.90
4518;DHT22;2271;49.464;11.070;2024-02-16T04:37:40;10.00;99.90
4518;DHT22;2271;49.464;11.070;2024-02-16T04:40:06;10.00;99.90
4518;DHT22;2271;49.464;11.070;2024-02-16T04:42:33;10.00;99.90
4518;DHT22;2271;49.464;11.070;2024-02-16T04:44:59;10.00;99.90
4518;DHT22;2271;49.464;11.070;2024-02-16T04:47:27;9.90;99.90
4518;DHT22;2271;49.464;11.070;2024-02-16T04:49:53;9.90;99.90
4518;DHT22;2271;49.464;11.070;2024-02-16T04:52:19;9.90;99.90
4518;DHT22;2271;49.464;11.070;2024-02-16T04:54:44;9.90;99.90
4518;DHT22;2271;49.464;11.070;2024-02-16T04:57:10;9.90;99.90
4518;DHT22;2271;49.464;11.070;2024-02-16T04:59:35;9.90;99.90
4518;DHT22;2271;49.464;11.070;2024-02-16T05:02:01;9.80;99.90
4518;DHT22;2271;49.464;11.070;2024-02-16T05:04:29;9.80;99.90
4518;DHT22;2271;49.464;11.070;2024-02-16T05:06:54;9.90;99.90
4518;DHT22;2271;49.464;11.070;2024-02-16T05:09:23;9.80;99.90
4518;DHT22;2271;49.464;11.070;2024-02-16T05:11:50;9.90;99.90
4518;DHT22;2271;49.464;11.070;2024-02-16T05:14:16;9.90;99.90
4518;DHT22;2271;49.464;11.070;2024-02-16T05:16:46;9.90;99.90
4518;DHT22;2271;49.464;11.070;2024-02-16T05:19:12;9.90;99.90
4518;DHT22;2271;49.464;11.070;2024-02-16T05:21:38;9.90;99.90
4518;DHT22;2271;49.464;11.070;2024-02-16T05:24:04;9.90;99.90
4518;DHT22;2271;49.464;11.070;2024-02-16T05:26:30;9.90;99.90
4518;DHT22;2271;49.464;11.070;2024-02-16T05:28:55;9.90;99.90
4518;DHT22;2271;49.464;11.070;2024-02-16T05:31:21;9.90;99.90
4518;DHT22;2271;49.464;11.070;2024-02-16T05:33:51;10.00;99.90
4518;DHT22;2271;49.464;11.070;2024-02-16T05:36:25;9.90;99.90
4518;DHT22;2271;49.464;11.070;2024-02-16T05:38:55;10.00;99.90
4518;DHT22;2271;49.464;11.070;2024-02-16T05:41:22;9.90;99.90
4518;DHT22;2271;49.464;11.070;2024-02-16T05:43:47;10.00;99.90
4518;DHT22;2271;49.464;11.070;2024-02-16T05:46:15;10.00;99.90
4518;DHT22;2271;49.464;11.070;2024-02-16T05:48:41;10.00;99.90
4518;DHT22;2271;49.464;11.070;2024-02-16T05:51:08;10.10;99.90
4518;DHT22;2271;49.464;11.070;2024-02-16T05:53:34;10.00;99.90
4518;DHT22;2271;49.464;11.070;2024-02-16T05:56:00;10.10;99.90
4518;DHT22;2271;49.464;11.070;2024-02-16T05:58:26;10.10;99.90
4518;DHT22;2271;49.464;11.070;2024-02-16T06:00:51;10.10;99.90
4518;DHT22;2271;49.464;11.070;2024-02-16T06:03:17;10.10;99.90
4518;DHT22;2271;49.464;11.070;2024-02-16T06:05:43;10.00;99.90
4518;DHT22;2271;49.464;11.070;2024-02-16T06:08:12;10.10;99.90
4518;DHT22;2271;49.464;11.070;2024-02-16T06:10:38;10.10;99.90
4518;DHT22;2271;49.464;11.070;2024-02-16T06:13:05;10.10;99.90
4518;DHT22;2271;49.464;11.070;2024-02-16T06:15:31;10.10;99.90
4518;DHT22;2271;49.464;11.070;2024-02-16T06:18:00;10.20;99.90
4518;DHT22;2271;49.464;11.070;2024-02-16T06:20:26;10.20;99.90
4518;DHT22;2271;49.464;11.070;2024-02-16T06:22:51;10.10;99.90
4518;DHT22;2271;49.464;11.070;2024-02-16T06:25:17;10.20;99.90
4518;DHT22;2271;49.464;11.070;2024-02-16T06:27:44;10.20;99.90
4518;DHT22;2271;49.464;11.070;2024-02-16T06:30:10;10.10;99.90
4518;DHT22;2271;49.464;11.070;2024-02-16T06:32:39;10.10;99.90
4518;DHT22;2271;49.464;11.070;2024-02-16T06:35:06;10.00;99.90
4518;DHT22;2271;49.464;11.070;2024-02-16T06:37:32;10.00;99.90
4518;DHT22;2271;49.464;11.070;2024-02-16T06:39:58;10.00;99.90
4518;DHT22;2271;49.464;11.070;2024-02-16T06:42:23;10.00;99.90
4518;DHT22;2271;49.464;11.070;2024-02-16T06:44:49;10.10;99.90
4518;DHT22;2271;49.464;11.070;2024-02-16T06:47:15;10.10;99.90
4518;DHT22;2271;49.464;11.070;2024-02-16T06:49:41;10.20;99.90
4518;DHT22;2271;49.464;11.070;2024-02-16T06:52:06;10.20;99.90
4518;DHT22;2271;49.464;11.070;2024-02-16T06:54:32;10.20;99.90
4518;DHT22;2271;49.464;11.070;2024-02-16T06:56:58;10.20;99.90
4518;DHT22;2271;49.464;11.070;2024-02-16T06:59:24;10.20;99.90
4518;DHT22;2271;49.464;11.070;2024-02-16T07:01:49;10.30;99.90
4518;DHT22;2271;49.464;11.070;2024-02-16T07:04:15;10.30;99.90
4518;DHT22;2271;49.464;11.070;2024-02-16T07:06:40;10.30;99.90
4518;DHT22;2271;49.464;11.070;2024-02-16T07:09:06;10.30;99.90
4518;DHT22;2271;49.464;11.070;2024-02-16T07:11:32;10.30;99.90
4518;DHT22;2271;49.464;11.070;2024-02-16T07:14:00;10.30;99.90
4518;DHT22;2271;49.464;11.070;2024-02-16T07:16:27;10.40;99.90
4518;DHT22;2271;49.464;11.070;2024-02-16T07:18:53;10.30;99.90
4518;DHT22;2271;49.464;11.070;2024-02-16T07:21:19;10.40;99.90
4518;DHT22;2271;49.464;11.070;2024-02-16T07:23:46;10.30;99.90
4518;DHT22;2271;49.464;11.070;2024-02-16T07:26:11;10.30;99.90
4518;DHT22;2271;49.464;11.070;2024-02-16T07:28:38;10.40;99.90
4518;DHT22;2271;49.464;11.070;2024-02-16T07:31:04;10.40;99.90
4518;DHT22;2271;49.464;11.070;2024-02-16T07:33:30;10.40;99.90
4518;DHT22;2271;49.464;11.070;2024-02-16T07:35:55;10.40;99.90
4518;DHT22;2271;49.464;11.070;2024-02-16T07:38:21;10.40;99.90
4518;DHT22;2271;49.464;11.070;2024-02-16T07:40:47;10.50;99.90
4518;DHT22;2271;49.464;11.070;2024-02-16T07:43:13;10.50;99.90
4518;DHT22;2271;49.464;11.070;2024-02-16T07:45:39;10.50;99.90
4518;DHT22;2271;49.464;11.070;2024-02-16T07:48:05;10.60;99.90
4518;DHT22;2271;49.464;11.070;2024-02-16T07:50:32;10.50;99.90
4518;DHT22;2271;49.464;11.070;2024-02-16T07:52:57;10.60;99.90
4518;DHT22;2271;49.464;11.070;2024-02-16T07:55:23;10.50;99.90
4518;DHT22;2271;49.464;11.070;2024-02-16T07:57:50;10.50;99.90
4518;DHT22;2271;49.464;11.070;2024-02-16T08:00:16;10.50;99.90
4518;DHT22;2271;49.464;11.070;2024-02-16T08:02:42;10.50;99.90
4518;DHT22;2271;49.464;11.070;2024-02-16T08:05:11;10.50;99.90
4518;DHT22;2271;49.464;11.070;2024-02-16T08:07:38;10.70;99.90
4518;DHT22;2271;49.464;11.070;2024-02-16T08:10:04;10.70;99.90
4518;DHT22;2271;49.464;11.070;2024-02-16T08:12:29;10.80;99.90
4518;DHT22;2271;49.464;11.070;2024-02-16T08:14:57;10.80;99.90
4518;DHT22;2271;49.464;11.070;2024-02-16T08:17:23;10.80;99.90
4518;DHT22;2271;49.464;11.070;2024-02-16T08:19:55;10.90;99.90
4518;DHT22;2271;49.464;11.070;2024-02-16T08:22:21;11.00;99.90
4518;DHT22;2271;49.464;11.070;2024-02-16T08:24:47;11.00;99.90
4518;DHT22;2271;49.464;11.070;2024-02-16T08:27:15;11.10;99.90
4518;DHT22;2271;49.464;11.070;2024-02-16T08:29:41;11.10;99.90
4518;DHT22;2271;49.464;11.070;2024-02-16T08:32:07;11.10;99.90
4518;DHT22;2271;49.464;11.070;2024-02-16T08:34:34;11.10;99.90
4518;DHT22;2271;49.464;11.070;2024-02-16T08:37:05;11.10;99.90
4518;DHT22;2271;49.464;11.070;2024-02-16T08:39:32;11.10;99.90
4518;DHT22;2271;49.464;11.070;2024-02-16T08:41:59;11.20;99.90
4518;DHT22;2271;49.464;11.070;2024-02-16T08:44:25;11.20;99.90
4518;DHT22;2271;49.464;11.070;2024-02-16T08:46:51;11.30;99.90
4518;DHT22;2271;49.464;11.070;2024-02-16T08:49:18;11.20;99.90
4518;DHT22;2271;49.464;11.070;2024-02-16T08:51:44;11.20;99.90
4518;DHT22;2271;49.464;11.070;2024-02-16T08:54:10;11.20;99.90
4518;DHT22;2271;49.464;11.070;2024-02-16T08:56:35;11.20;99.90
4518;DHT22;2271;49.464;11.070;2024-02-16T08:59:02;11.20;99.90
4518;DHT22;2271;49.464;11.070;2024-02-16T09:01:45;11.20;99.90
4518;DHT22;2271;49.464;11.070;2024-02-16T09:04:11;11.30;99.90
4518;DHT22;2271;49.464;11.070;2024-02-16T09:06:37;11.30;99.90
4518;DHT22;2271;49.464;11.070;2024-02-16T09:09:04;11.40;99.90
4518;DHT22;2271;49.464;11.070;2024-02-16T09:11:30;11.40;99.90
4518;DHT22;2271;49.464;11.070;2024-02-16T09:13:56;11.50;99.90
4518;DHT22;2271;49.464;11.070;2024-02-16T09:16:21;11.50;99.90
4518;DHT22;2271;49.464;11.070;2024-02-16T09:18:47;11.60;99.90
4518;DHT22;2271;49.464;11.070;2024-02-16T09:21:16;11.60;99.90
4518;DHT22;2271;49.464;11.070;2024-02-16T09:23:41;11.70;99.90
4518;DHT22;2271;49.464;11.070;2024-02-16T09:26:07;11.90;99.90
4518;DHT22;2271;49.464;11.070;2024-02-16T09:28:39;11.90;99.90
4518;DHT22;2271;49.464;11.070;2024-02-16T09:31:08;12.00;99.90
4518;DHT22;2271;49.464;11.070;2024-02-16T09:33:34;12.10;99.90
4518;DHT22;2271;49.464;11.070;2024-02-16T09:36:00;12.20;99.90
4518;DHT22;2271;49.464;11.070;2024-02-16T09:38:26;12.20;99.90
4518;DHT22;2271;49.464;11.070;2024-02-16T09:40:52;12.20;99.90
4518;DHT22;2271;49.464;11.070;2024-02-16T09:43:28;12.30;99.90
4518;DHT22;2271;49.464;11.070;2024-02-16T09:45:58;12.50;99.90
4518;DHT22;2271;49.464;11.070;2024-02-16T09:48:26;12.60;99.90
4518;DHT22;2271;49.464;11.070;2024-02-16T09:50:54;12.70;99.90
4518;DHT22;2271;49.464;11.070;2024-02-16T09:53:21;12.60;99.90
4518;DHT22;2271;49.464;11.070;2024-02-16T09:55:49;12.60;99.90
4518;DHT22;2271;49.464;11.070;2024-02-16T09:58:17;12.50;99.90
4518;DHT22;2271;49.464;11.070;2024-02-16T10:00:51;12.40;99.90
4518;DHT22;2271;49.464;11.070;2024-02-16T10:03:30;12.40;99.90
4518;DHT22;2271;49.464;11.070;2024-02-16T10:06:08;12.30;99.90
4518;DHT22;2271;49.464;11.070;2024-02-16T10:08:46;12.30;99.90
4518;DHT22;2271;49.464;11.070;2024-02-16T10:11:11;12.30;99.90
4518;DHT22;2271;49.464;11.070;2024-02-16T10:13:40;12.30;99.90
4518;DHT22;2271;49.464;11.070;2024-02-16T10:16:10;12.20;99.90
4518;DHT22;2271;49.464;11.070;2024-02-16T10:18:37;12.20;99.90
4518;DHT22;2271;49.464;11.070;2024-02-16T10:21:03;12.20;99.90
4518;DHT22;2271;49.464;11.070;2024-02-16T10:23:29;12.20;99.90
4518;DHT22;2271;49.464;11.070;2024-02-16T10:25:55;12.20;99.90
4518;DHT22;2271;49.464;11.070;2024-02-16T10:28:21;12.30;99.90
4518;DHT22;2271;49.464;11.070;2024-02-16T10:30:57;12.30;99.90
4518;DHT22;2271;49.464;11.070;2024-02-16T10:33:23;12.30;99.90
4518;DHT22;2271;49.464;11.070;2024-02-16T10:35:50;12.40;99.90
4518;DHT22;2271;49.464;11.070;2024-02-16T10:38:17;12.50;99.90
4518;DHT22;2271;49.464;11.070;2024-02-16T10:40:43;12.50;99.90
4518;DHT22;2271;49.464;11.070;2024-02-16T10:43:13;12.50;99.90
4518;DHT22;2271;49.464;11.070;2024-02-16T10:45:39;12.50;99.90
4518;DHT22;2271;49.464;11.070;2024-02-16T10:48:06;12.50;99.90
4518;DHT22;2271;49.464;11.070;2024-02-16T10:50:33;12.50;99.90
4518;DHT22;2271;49.464;11.070;2024-02-16T10:55:33;12.60;99.90
4518;DHT22;2271;49.464;11.070;2024-02-16T10:57:58;12.60;99.90
4518;DHT22;2271;49.464;11.070;2024-02-16T11:00:25;12.60;99.90
4518;DHT22;2271;49.464;11.070;2024-02-16T11:02:58;12.60;99.90
4518;DHT22;2271;49.464;11.070;2024-02-16T11:05:41;12.60;99.90
4518;DHT22;2271;49.464;11.070;2024-02-16T11:08:21;12.60;99.90
4518;DHT22;2271;49.464;11.070;2024-02-16T11:11:00;12.70;99.90
4518;DHT22;2271;49.464;11.070;2024-02-16T11:13:27;12.70;99.90
4518;DHT22;2271;49.464;11.070;2024-02-16T11:16:03;12.70;99.90
4518;DHT22;2271;49.464;11.070;2024-02-16T11:18:32;12.70;99.90
4518;DHT22;2271;49.464;11.070;2024-02-16T11:21:02;12.70;99.90
4518;DHT22;2271;49.464;11.070;2024-02-16T11:23:31;12.70;99.90
4518;DHT22;2271;49.464;11.070;2024-02-16T11:26:04;12.80;99.90
4518;DHT22;2271;49.464;11.070;2024-02-16T11:28:34;12.70;99.90
4518;DHT22;2271;49.464;11.070;2024-02-16T11:31:03;12.70;99.90
4518;DHT22;2271;49.464;11.070;2024-02-16T11:33:29;12.70;99.90
4518;DHT22;2271;49.464;11.070;2024-02-16T11:38:21;12.80;99.90
4518;DHT22;2271;49.464;11.070;2024-02-16T11:41:13;12.80;99.90
4518;DHT22;2271;49.464;11.070;2024-02-16T11:43:38;12.80;99.90
4518;DHT22;2271;49.464;11.070;2024-02-16T11:46:14;12.80;99.90
4518;DHT22;2271;49.464;11.070;2024-02-16T11:48:41;12.80;99.90
4518;DHT22;2271;49.464;11.070;2024-02-16T11:51:07;12.80;99.90
4518;DHT22;2271;49.464;11.070;2024-02-16T11:53:33;12.90;99.90
4518;DHT22;2271;49.464;11.070;2024-02-16T11:55:59;12.90;99.90
4518;DHT22;2271;49.464;11.070;2024-02-16T11:58:25;12.90;99.90
4518;DHT22;2271;49.464;11.070;2024-02-16T12:00:52;12.90;99.90
4518;DHT22;2271;49.464;11.070;2024-02-16T12:03:21;12.90;99.90
4518;DHT22;2271;49.464;11.070;2024-02-16T12:05:51;12.90;99.90
4518;DHT22;2271;49.464;11.070;2024-02-16T12:08:18;12.90;99.90
4518;DHT22;2271;49.464;11.070;2024-02-16T12:10:44;12.90;99.90
4518;DHT22;2271;49.464;11.070;2024-02-16T12:13:10;13.00;99.90
4518;DHT22;2271;49.464;11.070;2024-02-16T12:15:38;12.90;99.90
4518;DHT22;2271;49.464;11.070;2024-02-16T12:18:04;12.90;99.90
4518;DHT22;2271;49.464;11.070;2024-02-16T12:20:30;13.00;99.90
4518;DHT22;2271;49.464;11.070;2024-02-16T12:22:57;13.00;99.90
4518;DHT22;2271;49.464;11.070;2024-02-16T12:25:25;13.00;99.90
4518;DHT22;2271;49.464;11.070;2024-02-16T12:27:50;13.00;99.90
4518;DHT22;2271;49.464;11.070;2024-02-16T12:30:16;13.00;99.90
4518;DHT22;2271;49.464;11.070;2024-02-16T12:32:42;13.10;99.90
4518;DHT22;2271;49.464;11.070;2024-02-16T12:35:08;13.10;99.90
4518;DHT22;2271;49.464;11.070;2024-02-16T12:37:33;13.10;99.90
4518;DHT22;2271;49.464;11.070;2024-02-16T12:40:00;13.20;99.90
4518;DHT22;2271;49.464;11.070;2024-02-16T12:42:27;13.20;99.90
4518;DHT22;2271;49.464;11.070;2024-02-16T12:44:52;13.20;99.90
4518;DHT22;2271;49.464;11.070;2024-02-16T12:47:18;13.30;99.90
4518;DHT22;2271;49.464;11.070;2024-02-16T12:49:44;13.20;99.90
4518;DHT22;2271;49.464;11.070;2024-02-16T12:52:09;13.30;99.90
4518;DHT22;2271;49.464;11.070;2024-02-16T12:54:35;13.30;99.90
4518;DHT22;2271;49.464;11.070;2024-02-16T12:57:01;13.30;99.90
4518;DHT22;2271;49.464;11.070;2024-02-16T12:59:26;13.30;99.90
4518;DHT22;2271;49.464;11.070;2024-02-16T13:01:52;13.30;99.90
4518;DHT22;2271;49.464;11.070;2024-02-16T13:04:17;13.30;99.90
4518;DHT22;2271;49.464;11.070;2024-02-16T13:06:46;13.40;99.90
4518;DHT22;2271;49.464;11.070;2024-02-16T13:09:12;13.40;99.90
4518;DHT22;2271;49.464;11.070;2024-02-16T13:11:38;13.40;99.90
4518;DHT22;2271;49.464;11.070;2024-02-16T13:14:05;13.40;99.90
4518;DHT22;2271;49.464;11.070;2024-02-16T13:16:31;13.50;99.90
4518;DHT22;2271;49.464;11.070;2024-02-16T13:18:56;13.50;99.90
4518;DHT22;2271;49.464;11.070;2024-02-16T13:21:22;13.60;99.90
4518;DHT22;2271;49.464;11.070;2024-02-16T13:23:47;13.60;99.90
4518;DHT22;2271;49.464;11.070;2024-02-16T13:26:13;13.60;99.90
4518;DHT22;2271;49.464;11.070;2024-02-16T13:28:39;13.70;99.90
4518;DHT22;2271;49.464;11.070;2024-02-16T13:31:04;13.80;99.90
4518;DHT22;2271;49.464;11.070;2024-02-16T13:33:30;13.70;99.90
4518;DHT22;2271;49.464;11.070;2024-02-16T13:35:56;13.80;99.90
4518;DHT22;2271;49.464;11.070;2024-02-16T13:38:21;13.80;99.90
4518;DHT22;2271;49.464;11.070;2024-02-16T13:40:47;13.90;99.90
4518;DHT22;2271;49.464;11.070;2024-02-16T13:43:14;13.90;99.90
4518;DHT22;2271;49.464;11.070;2024-02-16T13:45:51;13.90;99.90
4518;DHT22;2271;49.464;11.070;2024-02-16T13:48:17;13.90;99.90
4518;DHT22;2271;49.464;11.070;2024-02-16T13:50:47;13.90;99.90
4518;DHT22;2271;49.464;11.070;2024-02-16T13:53:14;13.90;99.90
4518;DHT22;2271;49.464;11.070;2024-02-16T13:55:41;13.90;99.90
4518;DHT22;2271;49.464;11.070;2024-02-16T13:58:07;13.90;99.90
4518;DHT22;2271;49.464;11.070;2024-02-16T14:00:32;14.00;99.90
4518;DHT22;2271;49.464;11.070;2024-02-16T14:02:58;14.00;99.90
4518;DHT22;2271;49.464;11.070;2024-02-16T14:05:24;14.50;99.90
4518;DHT22;2271;49.464;11.070;2024-02-16T14:07:51;14.50;99.90
4518;DHT22;2271;49.464;11.070;2024-02-16T14:10:17;14.60;99.90
4518;DHT22;2271;49.464;11.070;2024-02-16T14:12:45;14.70;99.90
4518;DHT22;2271;49.464;11.070;2024-02-16T14:15:11;14.60;99.90
4518;DHT22;2271;49.464;11.070;2024-02-16T14:17:41;14.30;99.90
4518;DHT22;2271;49.464;11.070;2024-02-16T14:20:07;14.10;99.90
4518;DHT22;2271;49.464;11.070;2024-02-16T14:22:33;14.10;99.90
4518;DHT22;2271;49.464;11.070;2024-02-16T14:24:59;14.20;99.90
4518;DHT22;2271;49.464;11.070;2024-02-16T14:27:25;14.20;99.90
4518;DHT22;2271;49.464;11.070;2024-02-16T14:29:50;14.10;99.90
4518;DHT22;2271;49.464;11.070;2024-02-16T14:32:17;14.10;99.90
4518;DHT22;2271;49.464;11.070;2024-02-16T14:34:42;14.00;99.90
4518;DHT22;2271;49.464;11.070;2024-02-16T14:37:09;14.00;99.90
4518;DHT22;2271;49.464;11.070;2024-02-16T14:39:35;14.00;99.90
4518;DHT22;2271;49.464;11.070;2024-02-16T14:42:00;14.00;99.90
4518;DHT22;2271;49.464;11.070;2024-02-16T14:44:26;13.90;99.90
4518;DHT22;2271;49.464;11.070;2024-02-16T14:46:51;13.90;99.90
4518;DHT22;2271;49.464;11.070;2024-02-16T14:49:17;13.80;99.90
4518;DHT22;2271;49.464;11.070;2024-02-16T14:51:47;13.80;99.90
4518;DHT22;2271;49.464;11.070;2024-02-16T14:54:13;13.70;99.90
4518;DHT22;2271;49.464;11.070;2024-02-16T14:56:38;13.70;99.90
4518;DHT22;2271;49.464;11.070;2024-02-16T14:59:04;13.70;99.90
4518;DHT22;2271;49.464;11.070;2024-02-16T15:01:31;13.70;99.90
4518;DHT22;2271;49.464;11.070;2024-02-16T15:03:57;13.60;99.90
4518;DHT22;2271;49.464;11.070;2024-02-16T15:06:23;13.60;99.90
4518;DHT22;2271;49.464;11.070;2024-02-16T15:08:48;13.60;99.90
4518;DHT22;2271;49.464;11.070;2024-02-16T15:11:14;13.50;99.90
4518;DHT22;2271;49.464;11.070;2024-02-16T15:13:42;13.50;99.90
4518;DHT22;2271;49.464;11.070;2024-02-16T15:16:08;13.50;99.90
4518;DHT22;2271;49.464;11.070;2024-02-16T15:18:35;13.50;99.90
4518;DHT22;2271;49.464;11.070;2024-02-16T15:21:00;13.40;99.90
4518;DHT22;2271;49.464;11.070;2024-02-16T15:23:26;13.40;99.90
4518;DHT22;2271;49.464;11.070;2024-02-16T15:25:52;13.40;99.90
4518;DHT22;2271;49.464;11.070;2024-02-16T15:28:18;13.40;99.90
4518;DHT22;2271;49.464;11.070;2024-02-16T15:30:43;13.40;99.90
4518;DHT22;2271;49.464;11.070;2024-02-16T15:33:10;13.40;99.90
4518;DHT22;2271;49.464;11.070;2024-02-16T15:35:36;13.30;99.90
4518;DHT22;2271;49.464;11.070;2024-02-16T15:38:02;13.30;99.90
4518;DHT22;2271;49.464;11.070;2024-02-16T15:40:28;13.30;99.90
4518;DHT22;2271;49.464;11.070;2024-02-16T15:43:03;13.30;99.90
4518;DHT22;2271;49.464;11.070;2024-02-16T15:45:30;13.30;99.90
4518;DHT22;2271;49.464;11.070;2024-02-16T15:47:56;13.30;99.90